sensor_id;sensor_type;location;lat;lon;timestamp;temperature;humidity
4566;DHT22;2295;51.050;14.608;2023-03-01T01:08:09;-8.50;99.90
4566;DHT22;2295;51.050;14.608;2023-03-01T01:11:13;-8.50;99.90
4566;DHT22;2295;51.050;14.608;2023-03-01T01:14:05;-8.50;99.90
4566;DHT22;2295;51.050;14.608;2023-03-01T01:17:05;-8.50;99.90
4566;DHT22;2295;51.050;14.608;2023-03-01T01:20:23;-8.60;99.90
4566;DHT22;2295;51.050;14.608;2023-03-01T01:23:34;-8.60;99.90
4566;DHT22;2295;51.050;14.608;2023-03-01T01:26:39;-8.80;99.90
4566;DHT22;2295;51.050;14.608;2023-03-01T01:29:30;-8.80;99.90
4566;DHT22;2295;51.050;14.608;2023-03-01T01:32:58;-8.80;99.90
4566;DHT22;2295;51.050;14.608;2023-03-01T01:40:23;-8.60;99.90
4566;DHT22;2295;51.050;14.608;2023-03-01T01:43:19;-8.80;99.90
4566;DHT22;2295;51.050;14.608;2023-03-01T01:57:24;-8.80;99.90
4566;DHT22;2295;51.050;14.608;2023-03-01T02:00:22;-8.80;99.90
4566;DHT22;2295;51.050;14.608;2023-03-01T02:03:42;-8.90;99.90
4566;DHT22;2295;51.050;14.608;2023-03-01T02:07:24;-8.90;99.90
4566;DHT22;2295;51.050;14.608;2023-03-01T02:56:56;-9.40;99.90
4566;DHT22;2295;51.050;14.608;2023-03-01T02:59:28;-9.40;99.90
4566;DHT22;2295;51.050;14.608;2023-03-01T03:01:58;-9.50;99.90
4566;DHT22;2295;51.050;14.608;2023-03-01T03:04:29;-9.50;99.90
4566;DHT22;2295;51.050;14.608;2023-03-01T03:06:57;-9.50;99.90
4566;DHT22;2295;51.050;14.608;2023-03-01T03:09:26;-9.50;99.90
4566;DHT22;2295;51.050;14.608;2023-03-01T03:11:57;-9.60;99.90
4566;DHT22;2295;51.050;14.608;2023-03-01T03:14:26;-9.60;99.90
4566;DHT22;2295;51.050;14.608;2023-03-01T03:16:55;-9.50;99.90
4566;DHT22;2295;51.050;14.608;2023-03-01T03:19:23;-9.50;99.90
4566;DHT22;2295;51.050;14.608;2023-03-01T03:21:52;-9.50;99.90
4566;DHT22;2295;51.050;14.608;2023-03-01T03:24:21;-9.50;99.90
4566;DHT22;2295;51.050;14.608;2023-03-01T03:26:50;-9.50;99.90
4566;DHT22;2295;51.050;14.608;2023-03-01T03:29:20;-9.70;99.90
4566;DHT22;2295;51.050;14.608;2023-03-01T03:31:51;-9.60;99.90
4566;DHT22;2295;51.050;14.608;2023-03-01T03:34:20;-9.60;99.90
4566;DHT22;2295;51.050;14.608;2023-03-01T03:36:53;-9.70;99.90
4566;DHT22;2295;51.050;14.608;2023-03-01T03:39:26;-9.60;99.90
4566;DHT22;2295;51.050;14.608;2023-03-01T03:41:56;-9.50;99.90
4566;DHT22;2295;51.050;14.608;2023-03-01T03:44:29;-9.50;99.90
4566;DHT22;2295;51.050;14.608;2023-03-01T03:47:03;-9.60;99.90
4566;DHT22;2295;51.050;14.608;2023-03-01T03:49:35;-9.70;99.90
4566;DHT22;2295;51.050;14.608;2023-03-01T03:52:07;-9.80;99.90
4566;DHT22;2295;51.050;14.608;2023-03-01T03:54:43;-9.80;99.90
4566;DHT22;2295;51.050;14.608;2023-03-01T03:57:15;-9.70;99.90
4566;DHT22;2295;51.050;14.608;2023-03-01T03:59:45;-9.60;99.90
4566;DHT22;2295;51.050;14.608;2023-03-01T04:02:14;-9.50;99.90
4566;DHT22;2295;51.050;14.608;2023-03-01T04:04:49;-9.50;99.90
4566;DHT22;2295;51.050;14.608;2023-03-01T04:07:20;-9.50;99.90
4566;DHT22;2295;51.050;14.608;2023-03-01T04:09:49;-9.50;99.90
4566;DHT22;2295;51.050;14.608;2023-03-01T04:12:21;-9.50;99.90
4566;DHT22;2295;51.050;14.608;2023-03-01T04:14:55;-9.40;99.90
4566;DHT22;2295;51.050;14.608;2023-03-01T04:17:40;-9.50;99.90
4566;DHT22;2295;51.050;14.608;2023-03-01T04:20:19;-9.50;99.90
4566;DHT22;2295;51.050;14.608;2023-03-01T04:22:58;-9.50;99.90
4566;DHT22;2295;51.050;14.608;2023-03-01T04:25:31;-9.50;99.90
4566;DHT22;2295;51.050;14.608;2023-03-01T04:28:00;-9.50;99.90
4566;DHT22;2295;51.050;14.608;2023-03-01T04:30:31;-9.40;99.90
4566;DHT22;2295;51.050;14.608;2023-03-01T04:33:11;-9.40;99.90
4566;DHT22;2295;51.050;14.608;2023-03-01T04:35:43;-9.50;99.90
4566;DHT22;2295;51.050;14.608;2023-03-01T04:38:12;-9.60;99.90
4566;DHT22;2295;51.050;14.608;2023-03-01T04:40:40;-9.60;99.90
4566;DHT22;2295;51.050;14.608;2023-03-01T04:43:11;-9.70;99.90
4566;DHT22;2295;51.050;14.608;2023-03-01T04:45:43;-9.70;99.90
4566;DHT22;2295;51.050;14.608;2023-03-01T04:48:17;-9.60;99.90
4566;DHT22;2295;51.050;14.608;2023-03-01T04:50:48;-9.50;99.90
4566;DHT22;2295;51.050;14.608;2023-03-01T04:53:17;-9.50;99.90
4566;DHT22;2295;51.050;14.608;2023-03-01T04:55:46;-9.60;99.90
4566;DHT22;2295;51.050;14.608;2023-03-01T04:58:15;-9.60;99.90
4566;DHT22;2295;51.050;14.608;2023-03-01T05:00:48;-9.70;99.90
4566;DHT22;2295;51.050;14.608;2023-03-01T05:03:17;-9.70;99.90
4566;DHT22;2295;51.050;14.608;2023-03-01T05:05:52;-9.70;99.90
4566;DHT22;2295;51.050;14.608;2023-03-01T05:08:27;-9.70;99.90
4566;DHT22;2295;51.050;14.608;2023-03-01T05:10:56;-9.70;99.90
4566;DHT22;2295;51.050;14.608;2023-03-01T05:13:25;-9.80;99.90
4566;DHT22;2295;51.050;14.608;2023-03-01T05:16:10;-9.80;99.90
4566;DHT22;2295;51.050;14.608;2023-03-01T05:18:50;-9.90;99.90
4566;DHT22;2295;51.050;14.608;2023-03-01T05:21:22;-9.90;99.90
4566;DHT22;2295;51.050;14.608;2023-03-01T05:23:58;-9.80;99.90
4566;DHT22;2295;51.050;14.608;2023-03-01T05:26:30;-9.80;99.90
4566;DHT22;2295;51.050;14.608;2023-03-01T05:28:59;-9.80;99.90
4566;DHT22;2295;51.050;14.608;2023-03-01T05:31:29;-9.80;99.90
4566;DHT22;2295;51.050;14.608;2023-03-01T05:34:01;-9.80;99.90
4566;DHT22;2295;51.050;14.608;2023-03-01T05:36:33;-9.70;99.90
4566;DHT22;2295;51.050;14.608;2023-03-01T05:39:02;-9.70;99.90
4566;DHT22;2295;51.050;14.608;2023-03-01T05:41:32;-9.60;99.90
4566;DHT22;2295;51.050;14.608;2023-03-01T05:44:01;-9.50;99.90
4566;DHT22;2295;51.050;14.608;2023-03-01T05:46:34;-9.60;99.90
4566;DHT22;2295;51.050;14.608;2023-03-01T05:49:12;-9.70;99.90
4566;DHT22;2295;51.050;14.608;2023-03-01T05:51:42;-9.80;99.90
4566;DHT22;2295;51.050;14.608;2023-03-01T05:54:14;-9.80;99.90
4566;DHT22;2295;51.050;14.608;2023-03-01T05:56:46;-9.80;99.90
4566;DHT22;2295;51.050;14.608;2023-03-01T05:59:15;-9.70;99.90
4566;DHT22;2295;51.050;14.608;2023-03-01T06:01:49;-9.50;99.90
4566;DHT22;2295;51.050;14.608;2023-03-01T06:04:18;-9.40;99.90
4566;DHT22;2295;51.050;14.608;2023-03-01T06:06:47;-9.40;99.90
4566;DHT22;2295;51.050;14.608;2023-03-01T06:09:15;-9.50;99.90
4566;DHT22;2295;51.050;14.608;2023-03-01T06:11:44;-9.40;99.90
4566;DHT22;2295;51.050;14.608;2023-03-01T06:14:13;-9.40;99.90
4566;DHT22;2295;51.050;14.608;2023-03-01T06:16:42;-9.40;99.90
4566;DHT22;2295;51.050;14.608;2023-03-01T06:19:12;-9.40;99.90
4566;DHT22;2295;51.050;14.608;2023-03-01T06:21:44;-9.40;99.90
4566;DHT22;2295;51.050;14.608;2023-03-01T06:24:16;-9.40;99.90
4566;DHT22;2295;51.050;14.608;2023-03-01T06:26:47;-9.30;99.90
4566;DHT22;2295;51.050;14.608;2023-03-01T06:29:19;-9.30;99.90
4566;DHT22;2295;51.050;14.608;2023-03-01T06:31:55;-9.20;99.90
4566;DHT22;2295;51.050;14.608;2023-03-01T06:34:25;-9.20;99.90
4566;DHT22;2295;51.050;14.608;2023-03-01T06:36:57;-9.20;99.90
4566;DHT22;2295;51.050;14.608;2023-03-01T06:39:27;-9.10;99.90
4566;DHT22;2295;51.050;14.608;2023-03-01T06:41:56;-8.90;99.90
4566;DHT22;2295;51.050;14.608;2023-03-01T06:44:24;-8.90;99.90
4566;DHT22;2295;51.050;14.608;2023-03-01T06:46:53;-8.80;99.90
4566;DHT22;2295;51.050;14.608;2023-03-01T06:49:22;-8.80;99.90
4566;DHT22;2295;51.050;14.608;2023-03-01T06:51:52;-8.60;99.90
4566;DHT22;2295;51.050;14.608;2023-03-01T06:54:21;-8.60;99.90
4566;DHT22;2295;51.050;14.608;2023-03-01T06:56:50;-8.60;99.90
4566;DHT22;2295;51.050;14.608;2023-03-01T06:59:19;-8.50;99.90
4566;DHT22;2295;51.050;14.608;2023-03-01T07:01:47;-8.50;99.90
4566;DHT22;2295;51.050;14.608;2023-03-01T07:04:16;-8.30;99.90
4566;DHT22;2295;51.050;14.608;2023-03-01T07:06:44;-8.10;99.90
4566;DHT22;2295;51.050;14.608;2023-03-01T07:09:14;-7.90;99.90
4566;DHT22;2295;51.050;14.608;2023-03-01T07:11:46;-7.70;99.90
4566;DHT22;2295;51.050;14.608;2023-03-01T07:14:15;-7.50;99.90
4566;DHT22;2295;51.050;14.608;2023-03-01T07:16:43;-7.40;99.90
4566;DHT22;2295;51.050;14.608;2023-03-01T07:19:11;-7.40;99.90
4566;DHT22;2295;51.050;14.608;2023-03-01T07:21:40;-7.20;99.90
4566;DHT22;2295;51.050;14.608;2023-03-01T07:24:08;-7.00;99.90
4566;DHT22;2295;51.050;14.608;2023-03-01T07:26:38;-6.60;99.90
4566;DHT22;2295;51.050;14.608;2023-03-01T07:29:07;-6.10;99.90
4566;DHT22;2295;51.050;14.608;2023-03-01T07:31:37;-5.80;99.90
4566;DHT22;2295;51.050;14.608;2023-03-01T07:34:05;-5.10;99.90
4566;DHT22;2295;51.050;14.608;2023-03-01T07:36:34;-4.10;99.90
4566;DHT22;2295;51.050;14.608;2023-03-01T07:39:02;-2.90;99.90
4566;DHT22;2295;51.050;14.608;2023-03-01T07:41:31;-1.80;99.90
4566;DHT22;2295;51.050;14.608;2023-03-01T07:44:01;-1.00;99.90
4566;DHT22;2295;51.050;14.608;2023-03-01T07:46:29;-0.70;99.90
4566;DHT22;2295;51.050;14.608;2023-03-01T07:48:58;0.10;99.90
4566;DHT22;2295;51.050;14.608;2023-03-01T07:51:26;0.70;99.90
4566;DHT22;2295;51.050;14.608;2023-03-01T07:53:55;1.50;99.90
4566;DHT22;2295;51.050;14.608;2023-03-01T07:56:23;2.40;99.90
4566;DHT22;2295;51.050;14.608;2023-03-01T07:58:51;3.30;99.90
4566;DHT22;2295;51.050;14.608;2023-03-01T08:01:22;4.30;99.90
4566;DHT22;2295;51.050;14.608;2023-03-01T08:03:51;4.50;99.90
4566;DHT22;2295;51.050;14.608;2023-03-01T08:06:22;4.80;99.90
4566;DHT22;2295;51.050;14.608;2023-03-01T08:08:50;4.80;99.90
4566;DHT22;2295;51.050;14.608;2023-03-01T08:11:19;5.20;99.90
4566;DHT22;2295;51.050;14.608;2023-03-01T08:13:47;5.40;99.90
4566;DHT22;2295;51.050;14.608;2023-03-01T08:16:19;5.60;99.90
4566;DHT22;2295;51.050;14.608;2023-03-01T08:18:49;5.60;99.90
4566;DHT22;2295;51.050;14.608;2023-03-01T08:21:18;6.00;99.90
4566;DHT22;2295;51.050;14.608;2023-03-01T08:23:46;6.30;99.90
4566;DHT22;2295;51.050;14.608;2023-03-01T08:26:16;6.50;99.90
4566;DHT22;2295;51.050;14.608;2023-03-01T08:28:46;6.20;99.90
4566;DHT22;2295;51.050;14.608;2023-03-01T08:31:16;6.00;99.90
4566;DHT22;2295;51.050;14.608;2023-03-01T08:33:45;5.90;99.90
4566;DHT22;2295;51.050;14.608;2023-03-01T08:36:19;6.10;99.90
4566;DHT22;2295;51.050;14.608;2023-03-01T08:38:48;6.20;99.90
4566;DHT22;2295;51.050;14.608;2023-03-01T08:41:16;6.10;99.90
4566;DHT22;2295;51.050;14.608;2023-03-01T08:43:45;5.50;90.60
4566;DHT22;2295;51.050;14.608;2023-03-01T08:46:13;4.60;89.00
4566;DHT22;2295;51.050;14.608;2023-03-01T08:48:45;4.60;95.90
4566;DHT22;2295;51.050;14.608;2023-03-01T08:51:16;4.90;99.90
4566;DHT22;2295;51.050;14.608;2023-03-01T08:53:47;5.70;97.60
4566;DHT22;2295;51.050;14.608;2023-03-01T08:56:16;5.80;90.10
4566;DHT22;2295;51.050;14.608;2023-03-01T08:58:47;5.40;81.40
4566;DHT22;2295;51.050;14.608;2023-03-01T09:01:17;5.00;95.00
4566;DHT22;2295;51.050;14.608;2023-03-01T09:03:49;5.30;91.00
4566;DHT22;2295;51.050;14.608;2023-03-01T09:06:18;5.00;87.70
4566;DHT22;2295;51.050;14.608;2023-03-01T09:08:49;5.10;91.40
4566;DHT22;2295;51.050;14.608;2023-03-01T09:11:19;5.50;90.30
4566;DHT22;2295;51.050;14.608;2023-03-01T09:13:49;5.80;92.60
4566;DHT22;2295;51.050;14.608;2023-03-01T09:16:19;6.00;81.40
4566;DHT22;2295;51.050;14.608;2023-03-01T09:18:49;5.70;86.20
4566;DHT22;2295;51.050;14.608;2023-03-01T09:21:19;5.90;82.30
4566;DHT22;2295;51.050;14.608;2023-03-01T09:24:08;5.50;82.30
4566;DHT22;2295;51.050;14.608;2023-03-01T09:26:39;5.80;86.40
4566;DHT22;2295;51.050;14.608;2023-03-01T09:29:08;6.10;91.90
4566;DHT22;2295;51.050;14.608;2023-03-01T09:31:38;6.30;76.30
4566;DHT22;2295;51.050;14.608;2023-03-01T09:34:07;6.50;77.60
4566;DHT22;2295;51.050;14.608;2023-03-01T09:36:36;5.40;78.40
4566;DHT22;2295;51.050;14.608;2023-03-01T09:39:06;5.10;84.20
4566;DHT22;2295;51.050;14.608;2023-03-01T09:41:54;5.10;91.20
4566;DHT22;2295;51.050;14.608;2023-03-01T09:44:34;5.00;80.90
4566;DHT22;2295;51.050;14.608;2023-03-01T09:47:09;4.90;95.20
4566;DHT22;2295;51.050;14.608;2023-03-01T09:49:40;5.40;90.20
4566;DHT22;2295;51.050;14.608;2023-03-01T09:52:21;5.90;86.40
4566;DHT22;2295;51.050;14.608;2023-03-01T09:54:54;6.00;87.60
4566;DHT22;2295;51.050;14.608;2023-03-01T09:57:30;5.90;79.90
4566;DHT22;2295;51.050;14.608;2023-03-01T10:00:18;6.00;80.10
4566;DHT22;2295;51.050;14.608;2023-03-01T10:02:51;6.20;84.30
4566;DHT22;2295;51.050;14.608;2023-03-01T10:05:39;6.40;79.30
4566;DHT22;2295;51.050;14.608;2023-03-01T10:08:26;5.90;78.70
4566;DHT22;2295;51.050;14.608;2023-03-01T10:10:59;5.80;81.20
4566;DHT22;2295;51.050;14.608;2023-03-01T10:13:34;5.70;79.00
4566;DHT22;2295;51.050;14.608;2023-03-01T10:16:11;5.40;85.90
4566;DHT22;2295;51.050;14.608;2023-03-01T10:18:43;5.20;81.50
4566;DHT22;2295;51.050;14.608;2023-03-01T10:21:15;4.60;87.20
4566;DHT22;2295;51.050;14.608;2023-03-01T10:23:46;4.70;92.20
4566;DHT22;2295;51.050;14.608;2023-03-01T10:26:39;5.10;96.10
4566;DHT22;2295;51.050;14.608;2023-03-01T10:29:12;5.80;82.70
4566;DHT22;2295;51.050;14.608;2023-03-01T10:31:43;5.90;81.50
4566;DHT22;2295;51.050;14.608;2023-03-01T10:34:15;5.40;78.80
4566;DHT22;2295;51.050;14.608;2023-03-01T10:36:48;5.00;83.10
4566;DHT22;2295;51.050;14.608;2023-03-01T10:39:18;4.60;85.40
4566;DHT22;2295;51.050;14.608;2023-03-01T10:41:57;4.60;90.20
4566;DHT22;2295;51.050;14.608;2023-03-01T10:44:50;4.00;90.70
4566;DHT22;2295;51.050;14.608;2023-03-01T10:47:21;3.70;95.70
4566;DHT22;2295;51.050;14.608;2023-03-01T10:49:58;3.60;92.50
4566;DHT22;2295;51.050;14.608;2023-03-01T10:52:31;3.80;96.60
4566;DHT22;2295;51.050;14.608;2023-03-01T10:55:03;3.70;94.40
4566;DHT22;2295;51.050;14.608;2023-03-01T10:57:36;4.00;91.20
4566;DHT22;2295;51.050;14.608;2023-03-01T11:00:26;4.30;91.20
4566;DHT22;2295;51.050;14.608;2023-03-01T11:03:09;4.10;88.30
4566;DHT22;2295;51.050;14.608;2023-03-01T11:05:50;4.40;85.50
4566;DHT22;2295;51.050;14.608;2023-03-01T11:08:31;4.60;82.30
4566;DHT22;2295;51.050;14.608;2023-03-01T11:11:08;4.90;85.00
4566;DHT22;2295;51.050;14.608;2023-03-01T11:13:53;5.20;80.30
4566;DHT22;2295;51.050;14.608;2023-03-01T11:16:26;5.20;79.00
4566;DHT22;2295;51.050;14.608;2023-03-01T11:19:18;5.10;75.50
4566;DHT22;2295;51.050;14.608;2023-03-01T11:21:58;4.70;79.90
4566;DHT22;2295;51.050;14.608;2023-03-01T11:24:33;4.30;80.30
4566;DHT22;2295;51.050;14.608;2023-03-01T11:27:04;4.20;84.10
4566;DHT22;2295;51.050;14.608;2023-03-01T11:29:40;4.20;84.80
4566;DHT22;2295;51.050;14.608;2023-03-01T11:32:15;4.20;86.80
4566;DHT22;2295;51.050;14.608;2023-03-01T11:34:47;4.30;81.70
4566;DHT22;2295;51.050;14.608;2023-03-01T11:37:26;4.00;85.00
4566;DHT22;2295;51.050;14.608;2023-03-01T11:40:03;4.00;88.10
4566;DHT22;2295;51.050;14.608;2023-03-01T11:45:34;4.00;91.30
4566;DHT22;2295;51.050;14.608;2023-03-01T11:48:23;4.00;94.10
4566;DHT22;2295;51.050;14.608;2023-03-01T11:51:13;4.00;91.10
4566;DHT22;2295;51.050;14.608;2023-03-01T11:53:54;4.20;89.60
4566;DHT22;2295;51.050;14.608;2023-03-01T11:56:31;4.20;87.70
4566;DHT22;2295;51.050;14.608;2023-03-01T12:05:36;3.90;86.80
4566;DHT22;2295;51.050;14.608;2023-03-01T12:08:11;3.80;90.30
4566;DHT22;2295;51.050;14.608;2023-03-01T12:10:47;3.70;90.00
4566;DHT22;2295;51.050;14.608;2023-03-01T12:13:41;3.60;91.50
4566;DHT22;2295;51.050;14.608;2023-03-01T12:16:36;3.60;90.70
4566;DHT22;2295;51.050;14.608;2023-03-01T12:19:35;3.70;92.20
4566;DHT22;2295;51.050;14.608;2023-03-01T12:22:14;3.80;92.20
4566;DHT22;2295;51.050;14.608;2023-03-01T12:25:10;3.80;93.20
4566;DHT22;2295;51.050;14.608;2023-03-01T12:30:39;3.70;88.20
4566;DHT22;2295;51.050;14.608;2023-03-01T12:33:19;3.70;87.20
4566;DHT22;2295;51.050;14.608;2023-03-01T12:36:15;3.60;86.20
4566;DHT22;2295;51.050;14.608;2023-03-01T12:38:50;3.70;91.70
4566;DHT22;2295;51.050;14.608;2023-03-01T12:41:36;3.60;93.80
4566;DHT22;2295;51.050;14.608;2023-03-01T12:44:21;3.50;90.40
4566;DHT22;2295;51.050;14.608;2023-03-01T12:47:12;3.50;91.70
4566;DHT22;2295;51.050;14.608;2023-03-01T12:49:46;3.60;90.00
4566;DHT22;2295;51.050;14.608;2023-03-01T12:52:20;3.50;90.20
4566;DHT22;2295;51.050;14.608;2023-03-01T12:54:54;3.40;91.70
4566;DHT22;2295;51.050;14.608;2023-03-01T12:57:26;3.40;92.20
4566;DHT22;2295;51.050;14.608;2023-03-01T13:00:18;3.50;94.80
4566;DHT22;2295;51.050;14.608;2023-03-01T13:02:53;3.50;95.30
4566;DHT22;2295;51.050;14.608;2023-03-01T13:05:29;3.60;92.80
4566;DHT22;2295;51.050;14.608;2023-03-01T13:08:08;3.60;94.90
4566;DHT22;2295;51.050;14.608;2023-03-01T13:10:45;3.50;93.20
4566;DHT22;2295;51.050;14.608;2023-03-01T13:13:20;3.50;94.70
4566;DHT22;2295;51.050;14.608;2023-03-01T13:15:49;3.60;94.00
4566;DHT22;2295;51.050;14.608;2023-03-01T13:18:32;3.70;95.50
4566;DHT22;2295;51.050;14.608;2023-03-01T13:21:02;3.70;92.90
4566;DHT22;2295;51.050;14.608;2023-03-01T13:23:36;3.60;91.30
4566;DHT22;2295;51.050;14.608;2023-03-01T13:26:08;3.60;90.40
4566;DHT22;2295;51.050;14.608;2023-03-01T13:28:52;3.70;90.80
4566;DHT22;2295;51.050;14.608;2023-03-01T13:34:51;3.90;91.60
4566;DHT22;2295;51.050;14.608;2023-03-01T13:37:29;3.90;85.20
4566;DHT22;2295;51.050;14.608;2023-03-01T13:43:30;3.90;85.30
4566;DHT22;2295;51.050;14.608;2023-03-01T13:46:00;4.00;85.70
4566;DHT22;2295;51.050;14.608;2023-03-01T13:48:30;4.00;85.00
4566;DHT22;2295;51.050;14.608;2023-03-01T13:51:02;4.10;79.40
4566;DHT22;2295;51.050;14.608;2023-03-01T13:53:33;4.20;83.40
4566;DHT22;2295;51.050;14.608;2023-03-01T13:56:08;4.20;73.90
4566;DHT22;2295;51.050;14.608;2023-03-01T13:58:49;4.20;71.50
4566;DHT22;2295;51.050;14.608;2023-03-01T14:01:25;4.20;69.80
4566;DHT22;2295;51.050;14.608;2023-03-01T14:03:54;4.20;67.00
4566;DHT22;2295;51.050;14.608;2023-03-01T14:06:25;4.10;66.90
4566;DHT22;2295;51.050;14.608;2023-03-01T14:09:03;4.00;67.30
4566;DHT22;2295;51.050;14.608;2023-03-01T14:11:59;4.00;67.20
4566;DHT22;2295;51.050;14.608;2023-03-01T14:14:53;4.00;68.20
4566;DHT22;2295;51.050;14.608;2023-03-01T14:17:42;4.00;69.10
4566;DHT22;2295;51.050;14.608;2023-03-01T14:20:18;4.00;68.70
4566;DHT22;2295;51.050;14.608;2023-03-01T14:22:52;4.00;69.40
4566;DHT22;2295;51.050;14.608;2023-03-01T14:25:27;4.00;67.20
4566;DHT22;2295;51.050;14.608;2023-03-01T14:28:04;4.00;68.50
4566;DHT22;2295;51.050;14.608;2023-03-01T14:30:36;4.00;69.00
4566;DHT22;2295;51.050;14.608;2023-03-01T14:33:18;4.00;69.10
4566;DHT22;2295;51.050;14.608;2023-03-01T14:35:54;4.00;68.40
4566;DHT22;2295;51.050;14.608;2023-03-01T14:38:23;4.10;68.00
4566;DHT22;2295;51.050;14.608;2023-03-01T14:40:58;4.10;66.40
4566;DHT22;2295;51.050;14.608;2023-03-01T14:43:31;4.10;67.50
4566;DHT22;2295;51.050;14.608;2023-03-01T14:46:00;4.10;65.40
4566;DHT22;2295;51.050;14.608;2023-03-01T14:48:29;4.10;65.20
4566;DHT22;2295;51.050;14.608;2023-03-01T14:50:58;4.00;65.50
4566;DHT22;2295;51.050;14.608;2023-03-01T14:53:29;4.00;67.10
4566;DHT22;2295;51.050;14.608;2023-03-01T14:56:14;4.00;68.70
4566;DHT22;2295;51.050;14.608;2023-03-01T14:58:46;4.00;69.00
4566;DHT22;2295;51.050;14.608;2023-03-01T15:01:16;3.90;66.20
4566;DHT22;2295;51.050;14.608;2023-03-01T15:03:47;3.90;68.20
4566;DHT22;2295;51.050;14.608;2023-03-01T15:06:18;3.90;70.80
4566;DHT22;2295;51.050;14.608;2023-03-01T15:08:49;3.90;68.50
4566;DHT22;2295;51.050;14.608;2023-03-01T15:11:20;3.80;67.70
4566;DHT22;2295;51.050;14.608;2023-03-01T15:13:53;3.70;63.80
4566;DHT22;2295;51.050;14.608;2023-03-01T15:16:24;3.70;62.40
4566;DHT22;2295;51.050;14.608;2023-03-01T15:18:55;3.70;62.70
4566;DHT22;2295;51.050;14.608;2023-03-01T15:21:27;3.60;63.10
4566;DHT22;2295;51.050;14.608;2023-03-01T15:23:59;3.60;65.30
4566;DHT22;2295;51.050;14.608;2023-03-01T15:26:31;3.60;63.90
4566;DHT22;2295;51.050;14.608;2023-03-01T15:29:05;3.60;67.60
4566;DHT22;2295;51.050;14.608;2023-03-01T15:31:47;3.60;64.90
4566;DHT22;2295;51.050;14.608;2023-03-01T15:34:23;3.70;65.10
4566;DHT22;2295;51.050;14.608;2023-03-01T15:36:52;3.70;64.30
4566;DHT22;2295;51.050;14.608;2023-03-01T15:39:31;3.60;64.50
4566;DHT22;2295;51.050;14.608;2023-03-01T15:42:09;3.60;64.60
4566;DHT22;2295;51.050;14.608;2023-03-01T15:44:41;3.60;65.70
4566;DHT22;2295;51.050;14.608;2023-03-01T15:47:27;3.60;66.20
4566;DHT22;2295;51.050;14.608;2023-03-01T15:49:57;3.50;67.90
4566;DHT22;2295;51.050;14.608;2023-03-01T15:52:32;3.30;65.90
4566;DHT22;2295;51.050;14.608;2023-03-01T15:55:14;3.00;68.80
4566;DHT22;2295;51.050;14.608;2023-03-01T15:57:43;2.80;70.10
4566;DHT22;2295;51.050;14.608;2023-03-01T16:00:17;2.60;71.10
4566;DHT22;2295;51.050;14.608;2023-03-01T16:02:46;2.60;70.90
4566;DHT22;2295;51.050;14.608;2023-03-01T16:05:20;2.50;72.00
4566;DHT22;2295;51.050;14.608;2023-03-01T16:07:48;2.40;72.70
4566;DHT22;2295;51.050;14.608;2023-03-01T16:10:17;2.20;74.20
4566;DHT22;2295;51.050;14.608;2023-03-01T16:12:52;2.10;75.50
4566;DHT22;2295;51.050;14.608;2023-03-01T16:15:24;2.00;75.20
4566;DHT22;2295;51.050;14.608;2023-03-01T16:17:56;1.90;76.80
4566;DHT22;2295;51.050;14.608;2023-03-01T16:20:25;1.70;79.50
4566;DHT22;2295;51.050;14.608;2023-03-01T16:22:58;1.50;82.30
4566;DHT22;2295;51.050;14.608;2023-03-01T16:25:28;1.30;86.00
4566;DHT22;2295;51.050;14.608;2023-03-01T16:27:56;1.20;92.20
4566;DHT22;2295;51.050;14.608;2023-03-01T16:30:29;1.00;94.10
4566;DHT22;2295;51.050;14.608;2023-03-01T16:32:58;0.80;95.70
4566;DHT22;2295;51.050;14.608;2023-03-01T16:35:27;0.60;98.80
4566;DHT22;2295;51.050;14.608;2023-03-01T16:37:59;0.30;99.90
4566;DHT22;2295;51.050;14.608;2023-03-01T16:40:28;0.10;99.90
4566;DHT22;2295;51.050;14.608;2023-03-01T16:42:58;-0.20;99.90
4566;DHT22;2295;51.050;14.608;2023-03-01T16:45:33;-0.40;99.90
4566;DHT22;2295;51.050;14.608;2023-03-01T16:48:03;-0.60;99.90
4566;DHT22;2295;51.050;14.608;2023-03-01T16:50:33;-0.70;99.90
4566;DHT22;2295;51.050;14.608;2023-03-01T16:53:02;-0.90;99.90
4566;DHT22;2295;51.050;14.608;2023-03-01T16:55:31;-1.00;99.90
4566;DHT22;2295;51.050;14.608;2023-03-01T16:58:02;-1.10;99.90
4566;DHT22;2295;51.050;14.608;2023-03-01T17:00:34;-1.30;99.90
4566;DHT22;2295;51.050;14.608;2023-03-01T17:03:03;-1.40;99.90
4566;DHT22;2295;51.050;14.608;2023-03-01T17:05:31;-1.50;99.90
4566;DHT22;2295;51.050;14.608;2023-03-01T17:07:59;-1.60;99.90
4566;DHT22;2295;51.050;14.608;2023-03-01T17:10:28;-1.70;99.90
4566;DHT22;2295;51.050;14.608;2023-03-01T17:12:57;-1.80;99.90
4566;DHT22;2295;51.050;14.608;2023-03-01T17:15:25;-1.90;99.90
4566;DHT22;2295;51.050;14.608;2023-03-01T17:17:58;-2.00;99.90
4566;DHT22;2295;51.050;14.608;2023-03-01T17:20:27;-2.10;99.90
4566;DHT22;2295;51.050;14.608;2023-03-01T17:22:55;-2.10;99.90
4566;DHT22;2295;51.050;14.608;2023-03-01T17:25:24;-2.20;99.90
4566;DHT22;2295;51.050;14.608;2023-03-01T17:27:53;-2.20;99.90
4566;DHT22;2295;51.050;14.608;2023-03-01T17:30:21;-2.20;99.90
4566;DHT22;2295;51.050;14.608;2023-03-01T17:32:49;-2.30;99.90
4566;DHT22;2295;51.050;14.608;2023-03-01T17:35:23;-2.20;99.90
4566;DHT22;2295;51.050;14.608;2023-03-01T17:37:51;-2.10;99.90
4566;DHT22;2295;51.050;14.608;2023-03-01T17:40:22;-2.10;99.90
4566;DHT22;2295;51.050;14.608;2023-03-01T17:42:53;-2.10;99.90
4566;DHT22;2295;51.050;14.608;2023-03-01T17:45:23;-2.20;99.90
4566;DHT22;2295;51.050;14.608;2023-03-01T17:47:51;-2.30;99.90
4566;DHT22;2295;51.050;14.608;2023-03-01T17:50:19;-2.40;99.90
4566;DHT22;2295;51.050;14.608;2023-03-01T17:52:49;-2.40;99.90
4566;DHT22;2295;51.050;14.608;2023-03-01T17:55:17;-2.50;99.90
4566;DHT22;2295;51.050;14.608;2023-03-01T17:57:45;-2.60;99.90
4566;DHT22;2295;51.050;14.608;2023-03-01T18:00:20;-2.60;99.90
4566;DHT22;2295;51.050;14.608;2023-03-01T18:02:51;-2.60;99.90
4566;DHT22;2295;51.050;14.608;2023-03-01T18:05:21;-2.60;99.90
4566;DHT22;2295;51.050;14.608;2023-03-01T18:07:51;-2.50;99.90
4566;DHT22;2295;51.050;14.608;2023-03-01T18:10:20;-2.40;99.90
4566;DHT22;2295;51.050;14.608;2023-03-01T18:12:48;-2.50;99.90
4566;DHT22;2295;51.050;14.608;2023-03-01T18:15:18;-2.60;99.90
4566;DHT22;2295;51.050;14.608;2023-03-01T18:17:46;-2.70;99.90
4566;DHT22;2295;51.050;14.608;2023-03-01T18:20:18;-2.80;99.90
4566;DHT22;2295;51.050;14.608;2023-03-01T18:22:46;-2.80;99.90
4566;DHT22;2295;51.050;14.608;2023-03-01T18:25:18;-2.90;99.90
4566;DHT22;2295;51.050;14.608;2023-03-01T18:27:51;-3.00;99.90
4566;DHT22;2295;51.050;14.608;2023-03-01T18:30:19;-3.00;99.90
4566;DHT22;2295;51.050;14.608;2023-03-01T18:32:47;-3.10;99.90
4566;DHT22;2295;51.050;14.608;2023-03-01T18:35:22;-3.20;99.90
4566;DHT22;2295;51.050;14.608;2023-03-01T18:37:50;-3.20;99.90
4566;DHT22;2295;51.050;14.608;2023-03-01T18:40:27;-3.30;99.90
4566;DHT22;2295;51.050;14.608;2023-03-01T18:43:04;-3.40;99.90
4566;DHT22;2295;51.050;14.608;2023-03-01T18:45:33;-3.40;99.90
4566;DHT22;2295;51.050;14.608;2023-03-01T18:48:01;-3.50;99.90
4566;DHT22;2295;51.050;14.608;2023-03-01T18:50:30;-3.50;99.90
4566;DHT22;2295;51.050;14.608;2023-03-01T18:53:01;-3.60;99.90
4566;DHT22;2295;51.050;14.608;2023-03-01T18:55:33;-3.60;99.90
4566;DHT22;2295;51.050;14.608;2023-03-01T18:58:02;-3.70;99.90
4566;DHT22;2295;51.050;14.608;2023-03-01T19:00:31;-3.70;99.90
4566;DHT22;2295;51.050;14.608;2023-03-01T19:02:59;-3.70;99.90
4566;DHT22;2295;51.050;14.608;2023-03-01T19:05:39;-3.70;99.90
4566;DHT22;2295;51.050;14.608;2023-03-01T19:08:10;-3.70;99.90